Flight Track Log - Related Links

Times and Time Zones

All times are in EDT time to prevent confusion due to time zone crossing. See the SWA3143 flight status page for this flight to view local times or setup timezone preferences in your user account.

Time Position Orientation Groundspeed Altitude Reporting Facility
EDT Latitude Longitude Course Direction KTS MPH feet Rate Location/Type
Sun 11:18:29 PM 47.4747 -122.3083 359° North 178 205 1,400  Level Seattle Center
Sun 11:18:53 PM 47.4972 -122.3089 359° North 185 213 2,300 2,400 Climbing Seattle Center
Sun 11:19:54 PM 47.5617 -122.3094 360° North 223 257 4,800 2,585 Climbing Seattle Center
Sun 11:20:56 PM 47.6086 -122.2578 37° Northeast 251 289 7,600 2,293 Climbing Seattle Center
Sun 11:21:57 PM 47.5606 -122.1842 134° Southeast 303 349 9,500 1,721 Climbing Seattle Center
Sun 11:22:58 PM 47.4711 -122.1722 175° South 336 387 11,100 2,164 Climbing Seattle Center
Sun 11:23:59 PM 47.3708 -122.1494 171° South 359 413 13,900 2,579 Climbing Seattle Center
Sun 11:24:59 PM 47.2678 -122.1267 171° South 373 429 16,300 2,331 Climbing Seattle Center
Sun 11:26:00 PM 47.1572 -122.1019 171° South 378 435 18,600 2,016 Climbing Seattle Center
Sun 11:27:01 PM 47.0483 -122.0778 171° South 390 449 20,400 1,869 Climbing Seattle Center
Sun 11:28:02 PM 46.9347 -122.0542 172° South 407 468 22,400 1,672 Climbing Seattle Center
Sun 11:29:03 PM 46.8181 -122.0294 172° South 416 479 23,800 1,388 Climbing Seattle Center
Sun 11:30:03 PM 46.6972 -122.0036 172° South 433 498 25,200 1,388 Climbing Seattle Center
Sun 11:31:04 PM 46.5747 -121.9744 171° South 441 507 26,600 1,328 Climbing Seattle Center
Sun 11:32:05 PM 46.4497 -121.9306 166° South 456 525 27,900 1,279 Climbing Seattle Center
Sun 11:33:06 PM 46.3253 -121.8886 167° South 458 527 29,200 1,328 Climbing Seattle Center
Sun 11:34:07 PM 46.1892 -121.8442 167° South 462 532 30,600 1,339 Climbing Seattle Center
Sun 11:35:07 PM 46.0653 -121.8019 167° South 462 532 31,900 1,240 Climbing Seattle Center
Sun 11:36:08 PM 45.9422 -121.7594 166° South 457 526 33,100 1,230 Climbing Seattle Center
Sun 11:37:09 PM 45.8214 -121.7183 167° South 452 520 34,400 934 Climbing Seattle Center
Sun 11:38:10 PM 45.7022 -121.6803 167° South 447 514 35,000 298 Climbing Seattle Center
Sun 11:39:10 PM 45.5836 -121.6406 167° South 440 506 35,000  Level Seattle Center
Sun 11:40:11 PM 45.4644 -121.6008 167° South 440 506 35,000  Level Seattle Center
Sun 11:41:12 PM 45.3450 -121.5619 167° South 442 509 35,000  Level Seattle Center
Sun 11:42:13 PM 45.2258 -121.5228 167° South 442 509 35,000  Level Seattle Center
Sun 11:43:14 PM 45.1061 -121.4844 167° South 442 509 35,000  Level Seattle Center
Sun 11:44:14 PM 44.9642 -121.4372 167° South 441 507 35,000  Level Seattle Center
Sun 11:45:15 PM 44.8547 -121.4031 168° South 442 509 35,000  Level Seattle Center
Sun 11:46:16 PM 44.7356 -121.3644 167° South 441 507 35,000  Level Seattle Center
Sun 11:47:17 PM 44.6164 -121.3269 167° South 441 507 35,000  Level Seattle Center
Sun 11:48:17 PM 44.4978 -121.2894 167° South 440 506 35,000  Level Seattle Center
Sun 11:49:18 PM 44.3811 -121.2531 167° South 436 502 35,000  Level Seattle Center
Sun 11:50:19 PM 44.2533 -121.2117 167° South 437 503 35,000  Level Seattle Center
Sun 11:51:20 PM 44.1364 -121.1747 167° South 437 503 35,000  Level Seattle Center
Sun 11:52:20 PM 44.0181 -121.1372 167° South 436 502 35,000  Level Seattle Center
Sun 11:53:21 PM 43.9022 -121.1008 167° South 433 498 35,000  Level Seattle Center
Sun 11:54:22 PM 43.7850 -121.0636 167° South 432 497 35,000  Level Seattle Center
Sun 11:55:22 PM 43.6697 -121.0278 167° South 431 496 35,000  Level Seattle Center
Sun 11:56:23 PM 43.5422 -120.9897 168° South 430 495 35,000  Level Seattle Center
Sun 11:57:24 PM 43.4267 -120.9544 167° South 428 493 35,000  Level Seattle Center
Sun 11:58:25 PM 43.3122 -120.9194 167° South 426 490 35,000  Level Seattle Center
Sun 11:59:25 PM 43.1983 -120.8864 168° South 421 484 35,000  Level Seattle Center
Mon 12:00:26 AM 43.0856 -120.8519 167° South 419 482 35,000  Level Seattle Center
Mon 12:01:27 AM 42.9708 -120.8167 167° South 419 482 35,000  Level Seattle Center
Mon 12:02:27 AM 42.8553 -120.7831 168° South 420 483 35,000  Level Seattle Center
Mon 12:03:28 AM 42.7411 -120.7489 168° South 420 483 35,000  Level Seattle Center
Mon 12:04:29 AM 42.6281 -120.7158 168° South 418 481 35,000  Level Seattle Center
Mon 12:05:30 AM 42.5150 -120.6817 167° South 417 480 35,000  Level Seattle Center
Mon 12:06:30 AM 42.4019 -120.6492 168° South 416 479 35,000  Level Seattle Center
Mon 12:07:31 AM 42.2683 -120.6078 167° South 414 476 35,000  Level Seattle Center
Mon 12:08:32 AM 42.1558 -120.5764 168° South 413 475 35,000  Level Seattle Center
Mon 12:09:33 AM 42.0458 -120.5433 167° South 407 468 35,000  Level Seattle Center
Mon 12:10:33 AM 41.9333 -120.5122 168° South 409 471 35,000  Level Seattle Center
Mon 12:11:34 AM 41.8225 -120.4794 168° South 410 472 35,000  Level Seattle Center
Mon 12:12:35 AM 41.7106 -120.4472 168° South 410 472 35,000  Level Seattle Center
Mon 12:13:35 AM 41.6011 -120.4136 167° South 408 470 35,000  Level Seattle Center
Mon 12:14:36 AM 41.4900 -120.3817 168° South 407 468 35,000  Level Seattle Center
Mon 12:15:37 AM 41.3775 -120.3511 168° South 413 475 35,000  Level Seattle Center
Mon 12:16:37 AM 41.2664 -120.3192 168° South 411 473 35,000  Level Seattle Center
Mon 12:17:38 AM 41.1575 -120.2869 167° South 407 468 35,000  Level Seattle Center
Mon 12:18:39 AM 41.0467 -120.2561 168° South 406 467 35,000  Level Seattle Center
Mon 12:19:39 AM 40.9372 -120.2264 168° South 404 465 35,000  Level Seattle Center
Mon 12:20:32 AM 40.8528 -120.1997 167° South 403 464 35,000  Level Oakland Center
Mon 12:21:33 AM 40.7425 -120.1703 169° South 403 464 35,000  Level Oakland Center
Mon 12:22:34 AM 40.6119 -120.1339 168° South 403 464 35,000  Level Oakland Center
Mon 12:23:42 AM 40.5036 -120.1025 168° South 399 459 35,000  Level Seattle Center
Mon 12:24:36 AM 40.4061 -120.0733 167° South 399 459 35,000  Level Oakland Center
Mon 12:25:37 AM 40.2975 -120.0442 168° South 399 459 35,000  Level Oakland Center
Mon 12:26:38 AM 40.1892 -120.0136 168° South 399 459 35,000  Level Oakland Center
Mon 12:27:39 AM 40.0589 -119.9794 169° South 400 460 35,000  Level Oakland Center
Mon 12:28:40 AM 39.9489 -119.9489 168° South 402 463 35,000  Level Oakland Center
Mon 12:29:41 AM 39.8408 -119.9194 168° South 399 459 35,000  Level Oakland Center
Mon 12:30:42 AM 39.7317 -119.8897 168° South 400 460 35,000  Level Oakland Center
Mon 12:31:43 AM 39.6228 -119.8603 168° South 400 460 35,000  Level Oakland Center
Mon 12:32:44 AM 39.5117 -119.8306 168° South 403 464 35,000  Level Oakland Center
Mon 12:33:46 AM 39.4033 -119.8014 168° South 404 465 35,000  Level Oakland Center
Mon 12:34:47 AM 39.2947 -119.7733 169° South 400 460 35,000  Level Oakland Center
Mon 12:35:48 AM 39.1856 -119.7431 168° South 400 460 35,000  Level Oakland Center
Mon 12:36:49 AM 39.0528 -119.7072 168° South 402 463 35,000  Level Oakland Center
Mon 12:37:50 AM 38.9422 -119.6769 168° South 404 465 35,000  Level Oakland Center
Mon 12:38:51 AM 38.8311 -119.6478 168° South 410 472 35,000  Level Oakland Center
Mon 12:39:52 AM 38.7200 -119.6189 169° South 410 472 35,000  Level Oakland Center
Mon 12:40:53 AM 38.6100 -119.5903 169° South 408 470 35,000  Level Oakland Center
Mon 12:41:54 AM 38.5003 -119.5617 168° South 404 465 35,000  Level Oakland Center
Mon 12:42:55 AM 38.3903 -119.5322 168° South 404 465 35,000  Level Oakland Center
Mon 12:43:56 AM 38.2775 -119.5036 169° South 408 470 35,000  Level Oakland Center
Mon 12:44:57 AM 38.1642 -119.4744 169° South 409 471 35,000  Level Oakland Center
Mon 12:45:58 AM 38.0536 -119.4417 167° South 410 472 35,000  Level Oakland Center
Mon 12:46:59 AM 37.9383 -119.4136 169° South 413 475 35,000  Level Oakland Center
Mon 12:48:00 AM 37.8222 -119.3842 169° South 416 479 35,000  Level Oakland Center
Mon 12:49:01 AM 37.6836 -119.3511 169° South 421 484 35,000 -49 Level Oakland Center
Mon 12:50:02 AM 37.5722 -119.3219 168° South 419 482 34,900  Descending Oakland Center
Mon 12:51:03 AM 37.4631 -119.2933 168° South 405 466 35,000 49 Climbing Oakland Center
Mon 12:52:04 AM 37.3506 -119.2644 168° South 406 467 35,000  Level Oakland Center
Mon 12:53:05 AM 37.2364 -119.2358 169° South 417 480 35,000  Level Oakland Center
Mon 12:54:06 AM 37.1239 -119.2072 169° South 414 476 35,000  Level Oakland Center
Mon 12:55:06 AM 37.0106 -119.1792 169° South 414 476 35,000  Level Oakland Center
Mon 12:56:07 AM 36.8978 -119.1497 168° South 414 476 35,000  Level Oakland Center
Mon 12:57:08 AM 36.7836 -119.1211 169° South 414 476 35,000  Level Oakland Center
Mon 12:58:09 AM 36.6697 -119.0936 169° South 415 478 35,000  Level Oakland Center
Mon 12:59:10 AM 36.5567 -119.0647 168° South 415 478 35,000  Level Oakland Center
Mon 01:00:11 AM 36.4436 -119.0367 169° South 414 476 35,000  Level Oakland Center
Mon 01:01:12 AM 36.3289 -119.0067 168° South 415 478 35,000  Level Oakland Center
Mon 01:02:13 AM 36.2164 -118.9789 169° South 415 478 35,000  Level Oakland Center
Mon 01:03:14 AM 36.0814 -118.9469 169° South 415 478 35,000  Level Oakland Center
Mon 01:04:16 AM 35.9686 -118.9197 169° South 414 476 35,000  Level Oakland Center
Mon 01:05:16 AM 35.8558 -118.8911 168° South 413 475 35,000  Level Oakland Center
Mon 01:06:17 AM 35.7447 -118.8650 169° South 410 472 35,000  Level Oakland Center
Mon 01:07:18 AM 35.6289 -118.8356 168° South 417 480 35,000  Level Oakland Center
Mon 01:08:18 AM 35.5150 -118.8086 169° South 418 481 35,000  Level Oakland Center
Mon 01:09:19 AM 35.3994 -118.7800 169° South 419 482 35,000  Level Oakland Center
Mon 01:10:20 AM 35.2839 -118.7536 169° South 421 484 35,000  Level Oakland Center
Mon 01:11:21 AM 35.1683 -118.7242 168° South 421 484 35,000  Level Oakland Center
Mon 01:11:51 AM 35.1228 -118.7136 169° South 419 482 35,000  Level Los Center
Mon 01:12:52 AM 34.9825 -118.6819 170° South 422 486 35,000  Level Los Center
Mon 01:13:53 AM 34.8661 -118.6533 169° South 422 486 35,000  Level Los Center
Mon 01:14:54 AM 34.7508 -118.6267 169° South 422 486 35,000  Level Los Center
Mon 01:15:55 AM 34.6356 -118.5986 169° South 424 488 35,000  Level Los Center
Mon 01:16:56 AM 34.5206 -118.5703 169° South 423 487 35,000  Level Los Center
Mon 01:17:57 AM 34.4128 -118.5028 153° Southeast 441 507 35,000  Level Los Center
Mon 01:18:58 AM 34.3067 -118.4236 148° Southeast 444 511 35,000 -439 Level Los Center
Mon 01:20:00 AM 34.1992 -118.3464 149° Southeast 447 514 34,100 -927 Descending Los Center
Mon 01:21:01 AM 34.0919 -118.2686 149° Southeast 449 517 33,100 -984 Descending Los Center
Mon 01:22:02 AM 33.9844 -118.1892 148° Southeast 447 514 32,100 -934 Descending Los Center
Mon 01:23:03 AM 33.8783 -118.0994 145° Southeast 456 525 31,200 -885 Descending Los Center
Mon 01:24:04 AM 33.7739 -118.0081 144° Southeast 456 525 30,300 -1,033 Descending Los Center
Mon 01:25:05 AM 33.6689 -117.9197 145° Southeast 456 525 29,100 -2,066 Descending Los Center
Mon 01:26:06 AM 33.5642 -117.8303 145° Southeast 457 526 26,100 -2,803 Descending Los Center
Mon 01:27:07 AM 33.4611 -117.7433 145° Southeast 456 525 23,400 -2,607 Descending Los Center
Mon 01:28:08 AM 33.3653 -117.6611 144° Southeast 426 490 20,800 -2,754 Descending Los Center
Mon 01:29:09 AM 33.2539 -117.5669 145° Southeast 410 472 17,800 -2,656 Descending Los Center
Mon 01:30:10 AM 33.1650 -117.4928 145° Southeast 395 455 15,400 -2,508 Descending Los Center
Mon 01:31:11 AM 33.0778 -117.4214 146° Southeast 385 443 12,700 -2,607 Descending Los Center
Mon 01:32:12 AM 32.9928 -117.3536 146° Southeast 382 440 10,100 -1,377 Descending Los Center
Mon 01:33:13 AM 32.9175 -117.2939 146° Southeast 330 380 9,900 -1,131 Descending Los Center
Mon 01:34:14 AM 32.8511 -117.2403 146° Southeast 294 338 7,800 -1,426 Descending Los Center
Mon 01:35:15 AM 32.8047 -117.1764 131° Southeast 290 334 7,000 -689 Descending Los Center
Mon 01:36:16 AM 32.7908 -117.1161 105° East 204 235 6,400 -1,328 Descending Los Center
Mon 01:37:17 AM 32.7747 -117.0653 111° Southeast 174 200 4,300 -1,820 Descending Los Center
Mon 01:38:18 AM 32.7328 -117.0606 175° South 190 219 2,700 -1,475 Descending Los Center
Mon 01:39:19 AM 32.7153 -117.1142 249° West 153 176 1,300 -1,140 Descending Los Center
Mon 01:40:19 AM 32.7256 -117.1619 284° West 146 168 400 -545 Descending Los Center
Mon 01:41:20 AM 32.7361 -117.2067 286° West 147 169 200 -197 Descending Los Center
Mon 01:43:00 AM 32.7333 -117.1833 90° East  Level FlightAware

Login

Don't have an account? Register now (free) for customized features, flight alerts, and more!